Terminal Aerodrome Forecast
Issued by NWS

Home | Current Version | Previous Version | Graphics & Text | Print | Product List | Glossary On
Versions: 1 2 3 4 5 6 7 8 9 10 11 12 13 14 15 16
000
FTUS43 KMPX 280520
TAFRWF
TAF
KRWF 280520Z 2806/2906 VRB04KT P6SM BKN050
     FM281000 04005KT 5SM BR VCSH SCT015 OVC030
     FM281200 VRB04KT 4SM -SHRA BR OVC015
     FM282200 33006KT P6SM VCTS BKN025CB OVC035
     FM290200 30006KT P6SM OVC025=

USA.gov is the U.S. government's official web portal to all federal, state and local government web resources and services.